Fountain Green, Utah
Current Conditions -  °F | °C
As of 6:15 AM on Thursday 30 Oct 2014 (Local Time) from KPVU Reporting Station
Clear Clear  
Wind Chill: 33°   Ceiling: Unl
Heat Index: 37°   Visibility: 10mi
Dew Point: 23°   Wind: 6mph
Humidity: 56%   Direction: 170°S
Pressure: 30.3"   Gusts: NA
Location:  39.63°N, 111.64°W
Report Text: KPVU 301215Z 17005KT 10SM CLR 03/M05 A3030 RMK AO1
Loading
Personal Weather Stations






























Interactive Weather Map
Tropical Storm Tracking
New forecast layout! Learn more

10-Day Weather Forecast

Advertisements
Track Severe Weather on mobile